sensor_id;sensor_type;location;lat;lon;timestamp;P1;durP1;ratioP1;P2;durP2;ratioP2
9689;SDS011;4884;42.614;23.340;2022-11-20T00:02:14;3.07;;;1.50;;
9689;SDS011;4884;42.614;23.340;2022-11-20T00:04:39;3.27;;;1.50;;
9689;SDS011;4884;42.614;23.340;2022-11-20T00:07:04;6.10;;;1.57;;
9689;SDS011;4884;42.614;23.340;2022-11-20T00:09:30;2.60;;;1.67;;
9689;SDS011;4884;42.614;23.340;2022-11-20T00:11:55;3.47;;;1.50;;
9689;SDS011;4884;42.614;23.340;2022-11-20T00:14:20;1.63;;;1.53;;
9689;SDS011;4884;42.614;23.340;2022-11-20T00:16:46;5.33;;;1.53;;
9689;SDS011;4884;42.614;23.340;2022-11-20T00:19:11;3.33;;;1.30;;
9689;SDS011;4884;42.614;23.340;2022-11-20T00:21:36;1.60;;;1.20;;
9689;SDS011;4884;42.614;23.340;2022-11-20T00:24:02;2.60;;;1.50;;
9689;SDS011;4884;42.614;23.340;2022-11-20T00:26:28;3.70;;;1.30;;
9689;SDS011;4884;42.614;23.340;2022-11-20T00:28:55;2.97;;;1.27;;
9689;SDS011;4884;42.614;23.340;2022-11-20T00:31:22;2.73;;;1.30;;
9689;SDS011;4884;42.614;23.340;2022-11-20T00:33:47;1.20;;;1.07;;
9689;SDS011;4884;42.614;23.340;2022-11-20T00:36:17;2.13;;;1.00;;
9689;SDS011;4884;42.614;23.340;2022-11-20T00:38:44;5.43;;;1.60;;
9689;SDS011;4884;42.614;23.340;2022-11-20T00:41:11;1.80;;;1.03;;
9689;SDS011;4884;42.614;23.340;2022-11-20T00:43:38;1.60;;;1.50;;
9689;SDS011;4884;42.614;23.340;2022-11-20T00:46:05;1.50;;;1.20;;
9689;SDS011;4884;42.614;23.340;2022-11-20T00:48:34;1.90;;;1.10;;
9689;SDS011;4884;42.614;23.340;2022-11-20T00:51:00;3.07;;;0.97;;
9689;SDS011;4884;42.614;23.340;2022-11-20T00:53:25;1.37;;;0.97;;
9689;SDS011;4884;42.614;23.340;2022-11-20T00:58:24;3.13;;;1.83;;
9689;SDS011;4884;42.614;23.340;2022-11-20T01:00:50;1.93;;;0.90;;
9689;SDS011;4884;42.614;23.340;2022-11-20T01:03:16;1.90;;;1.20;;
9689;SDS011;4884;42.614;23.340;2022-11-20T01:05:42;2.33;;;1.60;;
9689;SDS011;4884;42.614;23.340;2022-11-20T01:08:07;3.20;;;1.70;;
9689;SDS011;4884;42.614;23.340;2022-11-20T01:10:33;1.43;;;1.00;;
9689;SDS011;4884;42.614;23.340;2022-11-20T01:12:58;2.87;;;1.17;;
9689;SDS011;4884;42.614;23.340;2022-11-20T01:15:42;7.67;;;3.30;;
9689;SDS011;4884;42.614;23.340;2022-11-20T01:18:07;1.77;;;1.20;;
9689;SDS011;4884;42.614;23.340;2022-11-20T01:20:36;2.30;;;1.10;;
9689;SDS011;4884;42.614;23.340;2022-11-20T01:23:02;1.13;;;0.80;;
9689;SDS011;4884;42.614;23.340;2022-11-20T01:25:28;3.33;;;1.10;;
9689;SDS011;4884;42.614;23.340;2022-11-20T01:27:53;2.70;;;1.00;;
9689;SDS011;4884;42.614;23.340;2022-11-20T01:30:18;1.90;;;0.90;;
9689;SDS011;4884;42.614;23.340;2022-11-20T01:32:44;5.10;;;1.40;;
9689;SDS011;4884;42.614;23.340;2022-11-20T01:35:09;2.00;;;1.00;;
9689;SDS011;4884;42.614;23.340;2022-11-20T01:37:35;4.20;;;0.90;;
9689;SDS011;4884;42.614;23.340;2022-11-20T01:40:00;3.70;;;1.70;;
9689;SDS011;4884;42.614;23.340;2022-11-20T01:42:26;1.70;;;1.33;;
9689;SDS011;4884;42.614;23.340;2022-11-20T01:48:13;3.27;;;1.10;;
9689;SDS011;4884;42.614;23.340;2022-11-20T01:50:38;3.07;;;1.40;;
9689;SDS011;4884;42.614;23.340;2022-11-20T01:53:06;9.77;;;5.03;;
9689;SDS011;4884;42.614;23.340;2022-11-20T01:55:38;14.47;;;7.90;;
9689;SDS011;4884;42.614;23.340;2022-11-20T01:58:06;3.77;;;1.23;;
9689;SDS011;4884;42.614;23.340;2022-11-20T02:00:32;1.50;;;1.23;;
9689;SDS011;4884;42.614;23.340;2022-11-20T02:02:58;1.93;;;1.30;;
9689;SDS011;4884;42.614;23.340;2022-11-20T02:07:59;4.83;;;1.83;;
9689;SDS011;4884;42.614;23.340;2022-11-20T02:10:25;2.30;;;1.33;;
9689;SDS011;4884;42.614;23.340;2022-11-20T02:12:52;1.20;;;1.10;;
9689;SDS011;4884;42.614;23.340;2022-11-20T02:15:36;0.60;;;0.60;;
9689;SDS011;4884;42.614;23.340;2022-11-20T02:18:01;2.87;;;1.10;;
9689;SDS011;4884;42.614;23.340;2022-11-20T02:20:27;1.57;;;0.93;;
9689;SDS011;4884;42.614;23.340;2022-11-20T02:25:25;3.00;;;0.90;;
9689;SDS011;4884;42.614;23.340;2022-11-20T02:27:51;1.23;;;1.10;;
9689;SDS011;4884;42.614;23.340;2022-11-20T02:30:16;2.23;;;1.53;;
9689;SDS011;4884;42.614;23.340;2022-11-20T02:32:42;1.97;;;0.90;;
9689;SDS011;4884;42.614;23.340;2022-11-20T02:35:08;1.63;;;0.83;;
9689;SDS011;4884;42.614;23.340;2022-11-20T02:37:55;2.27;;;1.50;;
9689;SDS011;4884;42.614;23.340;2022-11-20T02:40:21;2.17;;;1.00;;
9689;SDS011;4884;42.614;23.340;2022-11-20T02:42:47;3.70;;;1.07;;
9689;SDS011;4884;42.614;23.340;2022-11-20T02:45:12;3.30;;;1.10;;
9689;SDS011;4884;42.614;23.340;2022-11-20T02:47:38;1.70;;;1.10;;
9689;SDS011;4884;42.614;23.340;2022-11-20T02:50:04;2.80;;;0.97;;
9689;SDS011;4884;42.614;23.340;2022-11-20T02:52:30;2.67;;;1.23;;
9689;SDS011;4884;42.614;23.340;2022-11-20T02:54:55;2.37;;;1.40;;
9689;SDS011;4884;42.614;23.340;2022-11-20T02:57:21;4.23;;;2.73;;
9689;SDS011;4884;42.614;23.340;2022-11-20T02:59:46;2.17;;;1.27;;
9689;SDS011;4884;42.614;23.340;2022-11-20T03:02:12;1.97;;;1.30;;
9689;SDS011;4884;42.614;23.340;2022-11-20T03:04:37;3.23;;;1.30;;
9689;SDS011;4884;42.614;23.340;2022-11-20T03:07:03;4.13;;;1.90;;
9689;SDS011;4884;42.614;23.340;2022-11-20T03:09:28;1.87;;;1.77;;
9689;SDS011;4884;42.614;23.340;2022-11-20T03:11:54;1.60;;;1.40;;
9689;SDS011;4884;42.614;23.340;2022-11-20T03:14:19;1.63;;;1.20;;
9689;SDS011;4884;42.614;23.340;2022-11-20T03:16:44;2.97;;;1.17;;
9689;SDS011;4884;42.614;23.340;2022-11-20T03:19:10;3.60;;;0.90;;
9689;SDS011;4884;42.614;23.340;2022-11-20T03:21:36;3.33;;;1.40;;
9689;SDS011;4884;42.614;23.340;2022-11-20T03:24:02;3.90;;;1.03;;
9689;SDS011;4884;42.614;23.340;2022-11-20T03:26:28;3.83;;;1.50;;
9689;SDS011;4884;42.614;23.340;2022-11-20T03:28:54;4.23;;;1.83;;
9689;SDS011;4884;42.614;23.340;2022-11-20T03:31:23;1.23;;;1.20;;
9689;SDS011;4884;42.614;23.340;2022-11-20T03:33:53;4.20;;;1.33;;
9689;SDS011;4884;42.614;23.340;2022-11-20T03:36:21;1.20;;;1.17;;
9689;SDS011;4884;42.614;23.340;2022-11-20T03:38:47;1.90;;;1.23;;
9689;SDS011;4884;42.614;23.340;2022-11-20T03:41:14;1.30;;;1.10;;
9689;SDS011;4884;42.614;23.340;2022-11-20T03:43:41;5.83;;;1.60;;
9689;SDS011;4884;42.614;23.340;2022-11-20T03:46:07;1.73;;;1.03;;
9689;SDS011;4884;42.614;23.340;2022-11-20T03:48:33;1.90;;;0.77;;
9689;SDS011;4884;42.614;23.340;2022-11-20T03:53:43;2.17;;;1.30;;
9689;SDS011;4884;42.614;23.340;2022-11-20T03:56:10;0.93;;;0.73;;
9689;SDS011;4884;42.614;23.340;2022-11-20T03:58:36;2.60;;;1.00;;
9689;SDS011;4884;42.614;23.340;2022-11-20T04:01:05;2.57;;;1.23;;
9689;SDS011;4884;42.614;23.340;2022-11-20T04:03:35;2.30;;;1.33;;
9689;SDS011;4884;42.614;23.340;2022-11-20T04:06:02;1.67;;;1.17;;
9689;SDS011;4884;42.614;23.340;2022-11-20T04:08:32;1.47;;;1.00;;
9689;SDS011;4884;42.614;23.340;2022-11-20T04:11:08;2.00;;;1.27;;
9689;SDS011;4884;42.614;23.340;2022-11-20T04:13:45;2.20;;;1.13;;
9689;SDS011;4884;42.614;23.340;2022-11-20T04:16:12;3.60;;;1.20;;
9689;SDS011;4884;42.614;23.340;2022-11-20T04:18:37;1.30;;;0.90;;
9689;SDS011;4884;42.614;23.340;2022-11-20T04:21:04;1.90;;;1.13;;
9689;SDS011;4884;42.614;23.340;2022-11-20T04:23:30;3.77;;;1.30;;
9689;SDS011;4884;42.614;23.340;2022-11-20T04:26:00;3.87;;;1.20;;
9689;SDS011;4884;42.614;23.340;2022-11-20T04:28:28;3.73;;;1.63;;
9689;SDS011;4884;42.614;23.340;2022-11-20T04:30:54;1.93;;;0.90;;
9689;SDS011;4884;42.614;23.340;2022-11-20T04:33:19;1.17;;;1.00;;
9689;SDS011;4884;42.614;23.340;2022-11-20T04:35:44;2.83;;;1.23;;
9689;SDS011;4884;42.614;23.340;2022-11-20T04:38:11;6.67;;;1.30;;
9689;SDS011;4884;42.614;23.340;2022-11-20T04:40:37;1.67;;;1.40;;
9689;SDS011;4884;42.614;23.340;2022-11-20T04:43:02;2.63;;;1.20;;
9689;SDS011;4884;42.614;23.340;2022-11-20T04:45:28;2.67;;;0.93;;
9689;SDS011;4884;42.614;23.340;2022-11-20T04:47:53;1.50;;;1.00;;
9689;SDS011;4884;42.614;23.340;2022-11-20T04:50:18;1.10;;;1.00;;
9689;SDS011;4884;42.614;23.340;2022-11-20T04:52:44;4.77;;;1.73;;
9689;SDS011;4884;42.614;23.340;2022-11-20T04:55:09;2.20;;;1.80;;
9689;SDS011;4884;42.614;23.340;2022-11-20T04:57:35;1.40;;;1.00;;
9689;SDS011;4884;42.614;23.340;2022-11-20T05:00:00;1.40;;;1.03;;
9689;SDS011;4884;42.614;23.340;2022-11-20T05:02:25;1.30;;;1.20;;
9689;SDS011;4884;42.614;23.340;2022-11-20T05:04:51;3.40;;;1.10;;
9689;SDS011;4884;42.614;23.340;2022-11-20T05:07:16;0.80;;;0.80;;
9689;SDS011;4884;42.614;23.340;2022-11-20T05:09:41;1.33;;;0.90;;
9689;SDS011;4884;42.614;23.340;2022-11-20T05:12:07;3.40;;;1.30;;
9689;SDS011;4884;42.614;23.340;2022-11-20T05:14:33;1.73;;;1.10;;
9689;SDS011;4884;42.614;23.340;2022-11-20T05:16:59;1.33;;;0.70;;
9689;SDS011;4884;42.614;23.340;2022-11-20T05:19:24;2.67;;;1.00;;
9689;SDS011;4884;42.614;23.340;2022-11-20T05:21:50;4.83;;;1.20;;
9689;SDS011;4884;42.614;23.340;2022-11-20T05:24:15;2.43;;;1.60;;
9689;SDS011;4884;42.614;23.340;2022-11-20T05:26:40;1.03;;;1.00;;
9689;SDS011;4884;42.614;23.340;2022-11-20T05:29:06;1.83;;;1.47;;
9689;SDS011;4884;42.614;23.340;2022-11-20T05:31:31;2.60;;;1.20;;
9689;SDS011;4884;42.614;23.340;2022-11-20T05:33:57;3.43;;;1.33;;
9689;SDS011;4884;42.614;23.340;2022-11-20T05:36:22;2.00;;;1.43;;
9689;SDS011;4884;42.614;23.340;2022-11-20T05:38:48;2.23;;;1.03;;
9689;SDS011;4884;42.614;23.340;2022-11-20T05:41:14;2.63;;;1.17;;
9689;SDS011;4884;42.614;23.340;2022-11-20T05:43:41;2.83;;;0.93;;
9689;SDS011;4884;42.614;23.340;2022-11-20T05:46:09;3.13;;;1.47;;
9689;SDS011;4884;42.614;23.340;2022-11-20T05:48:36;4.77;;;1.27;;
9689;SDS011;4884;42.614;23.340;2022-11-20T05:51:02;2.80;;;1.60;;
9689;SDS011;4884;42.614;23.340;2022-11-20T05:53:29;2.33;;;1.10;;
9689;SDS011;4884;42.614;23.340;2022-11-20T05:55:58;1.50;;;1.00;;
9689;SDS011;4884;42.614;23.340;2022-11-20T05:58:31;1.23;;;1.10;;
9689;SDS011;4884;42.614;23.340;2022-11-20T06:01:04;1.13;;;1.00;;
9689;SDS011;4884;42.614;23.340;2022-11-20T06:03:35;2.63;;;1.10;;
9689;SDS011;4884;42.614;23.340;2022-11-20T06:06:00;3.97;;;1.33;;
9689;SDS011;4884;42.614;23.340;2022-11-20T06:08:26;4.37;;;1.70;;
9689;SDS011;4884;42.614;23.340;2022-11-20T06:10:51;4.67;;;1.53;;
9689;SDS011;4884;42.614;23.340;2022-11-20T06:13:16;2.90;;;1.00;;
9689;SDS011;4884;42.614;23.340;2022-11-20T06:15:42;3.77;;;1.47;;
9689;SDS011;4884;42.614;23.340;2022-11-20T06:18:07;2.13;;;1.20;;
9689;SDS011;4884;42.614;23.340;2022-11-20T06:20:32;2.90;;;1.20;;
9689;SDS011;4884;42.614;23.340;2022-11-20T06:22:58;2.13;;;1.20;;
9689;SDS011;4884;42.614;23.340;2022-11-20T06:25:23;3.77;;;1.60;;
9689;SDS011;4884;42.614;23.340;2022-11-20T06:27:48;2.70;;;1.70;;
9689;SDS011;4884;42.614;23.340;2022-11-20T06:30:14;3.13;;;1.10;;
9689;SDS011;4884;42.614;23.340;2022-11-20T06:32:39;1.60;;;0.90;;
9689;SDS011;4884;42.614;23.340;2022-11-20T06:35:05;3.33;;;1.53;;
9689;SDS011;4884;42.614;23.340;2022-11-20T06:37:30;3.03;;;1.30;;
9689;SDS011;4884;42.614;23.340;2022-11-20T06:39:56;2.17;;;1.00;;
9689;SDS011;4884;42.614;23.340;2022-11-20T06:42:21;1.63;;;0.90;;
9689;SDS011;4884;42.614;23.340;2022-11-20T06:44:46;2.57;;;1.47;;
9689;SDS011;4884;42.614;23.340;2022-11-20T06:47:12;3.23;;;1.03;;
9689;SDS011;4884;42.614;23.340;2022-11-20T06:49:37;2.07;;;0.97;;
9689;SDS011;4884;42.614;23.340;2022-11-20T06:52:03;5.83;;;1.20;;
9689;SDS011;4884;42.614;23.340;2022-11-20T06:54:29;1.63;;;1.17;;
9689;SDS011;4884;42.614;23.340;2022-11-20T06:56:54;1.60;;;1.10;;
9689;SDS011;4884;42.614;23.340;2022-11-20T06:59:19;2.33;;;0.90;;
9689;SDS011;4884;42.614;23.340;2022-11-20T07:01:45;1.27;;;1.00;;
9689;SDS011;4884;42.614;23.340;2022-11-20T07:04:10;2.57;;;1.10;;
9689;SDS011;4884;42.614;23.340;2022-11-20T07:06:35;1.57;;;1.00;;
9689;SDS011;4884;42.614;23.340;2022-11-20T07:09:01;2.37;;;0.77;;
9689;SDS011;4884;42.614;23.340;2022-11-20T07:11:26;2.73;;;1.17;;
9689;SDS011;4884;42.614;23.340;2022-11-20T07:13:52;2.37;;;0.80;;
9689;SDS011;4884;42.614;23.340;2022-11-20T07:16:17;2.70;;;1.03;;
9689;SDS011;4884;42.614;23.340;2022-11-20T07:18:43;3.93;;;1.40;;
9689;SDS011;4884;42.614;23.340;2022-11-20T07:21:09;6.13;;;2.10;;
9689;SDS011;4884;42.614;23.340;2022-11-20T07:23:35;1.77;;;1.03;;
9689;SDS011;4884;42.614;23.340;2022-11-20T07:26:07;2.60;;;1.20;;
9689;SDS011;4884;42.614;23.340;2022-11-20T07:28:34;4.73;;;1.33;;
9689;SDS011;4884;42.614;23.340;2022-11-20T07:31:00;7.20;;;1.60;;
9689;SDS011;4884;42.614;23.340;2022-11-20T07:33:25;2.93;;;1.20;;
9689;SDS011;4884;42.614;23.340;2022-11-20T07:35:51;1.50;;;1.17;;
9689;SDS011;4884;42.614;23.340;2022-11-20T07:38:16;2.57;;;1.37;;
9689;SDS011;4884;42.614;23.340;2022-11-20T07:40:41;3.03;;;1.00;;
9689;SDS011;4884;42.614;23.340;2022-11-20T07:43:07;2.47;;;1.40;;
9689;SDS011;4884;42.614;23.340;2022-11-20T07:45:32;2.77;;;0.80;;
9689;SDS011;4884;42.614;23.340;2022-11-20T07:47:57;4.10;;;1.67;;
9689;SDS011;4884;42.614;23.340;2022-11-20T07:50:23;5.10;;;1.60;;
9689;SDS011;4884;42.614;23.340;2022-11-20T07:52:48;6.83;;;1.60;;
9689;SDS011;4884;42.614;23.340;2022-11-20T07:55:14;3.77;;;1.53;;
9689;SDS011;4884;42.614;23.340;2022-11-20T07:57:39;3.60;;;1.50;;
9689;SDS011;4884;42.614;23.340;2022-11-20T08:00:05;4.93;;;1.47;;
9689;SDS011;4884;42.614;23.340;2022-11-20T08:02:34;3.83;;;1.83;;
9689;SDS011;4884;42.614;23.340;2022-11-20T08:05:01;5.23;;;1.47;;
9689;SDS011;4884;42.614;23.340;2022-11-20T08:07:26;4.57;;;1.57;;
9689;SDS011;4884;42.614;23.340;2022-11-20T08:09:52;2.50;;;1.10;;
9689;SDS011;4884;42.614;23.340;2022-11-20T08:12:18;5.50;;;1.27;;
9689;SDS011;4884;42.614;23.340;2022-11-20T08:15:03;7.30;;;1.57;;
9689;SDS011;4884;42.614;23.340;2022-11-20T08:17:29;5.53;;;1.40;;
9689;SDS011;4884;42.614;23.340;2022-11-20T08:19:55;9.73;;;1.83;;
9689;SDS011;4884;42.614;23.340;2022-11-20T08:22:20;9.73;;;1.60;;
9689;SDS011;4884;42.614;23.340;2022-11-20T08:24:45;7.23;;;2.30;;
9689;SDS011;4884;42.614;23.340;2022-11-20T08:27:11;4.57;;;1.60;;
9689;SDS011;4884;42.614;23.340;2022-11-20T08:29:37;7.20;;;1.63;;
9689;SDS011;4884;42.614;23.340;2022-11-20T08:32:02;2.57;;;1.57;;
9689;SDS011;4884;42.614;23.340;2022-11-20T08:34:27;5.67;;;2.40;;
9689;SDS011;4884;42.614;23.340;2022-11-20T08:36:53;9.30;;;4.03;;
9689;SDS011;4884;42.614;23.340;2022-11-20T08:39:18;6.40;;;2.10;;
9689;SDS011;4884;42.614;23.340;2022-11-20T08:41:43;5.30;;;2.00;;
9689;SDS011;4884;42.614;23.340;2022-11-20T08:44:09;9.40;;;2.50;;
9689;SDS011;4884;42.614;23.340;2022-11-20T08:46:38;47.07;;;25.70;;
9689;SDS011;4884;42.614;23.340;2022-11-20T08:49:06;81.17;;;35.00;;
9689;SDS011;4884;42.614;23.340;2022-11-20T08:51:33;18.83;;;6.97;;
9689;SDS011;4884;42.614;23.340;2022-11-20T08:53:58;19.83;;;8.97;;
9689;SDS011;4884;42.614;23.340;2022-11-20T08:56:24;8.33;;;3.53;;
9689;SDS011;4884;42.614;23.340;2022-11-20T08:58:50;133.17;;;55.37;;
9689;SDS011;4884;42.614;23.340;2022-11-20T09:01:16;258.63;;;114.77;;
9689;SDS011;4884;42.614;23.340;2022-11-20T09:03:42;4.83;;;4.00;;
9689;SDS011;4884;42.614;23.340;2022-11-20T09:06:07;4.80;;;3.83;;
9689;SDS011;4884;42.614;23.340;2022-11-20T09:08:33;54.23;;;25.60;;
9689;SDS011;4884;42.614;23.340;2022-11-20T09:10:58;287.87;;;144.20;;
9689;SDS011;4884;42.614;23.340;2022-11-20T09:13:24;241.23;;;123.60;;
9689;SDS011;4884;42.614;23.340;2022-11-20T09:15:54;39.13;;;20.90;;
9689;SDS011;4884;42.614;23.340;2022-11-20T09:18:21;17.30;;;10.87;;
9689;SDS011;4884;42.614;23.340;2022-11-20T09:20:46;17.77;;;10.90;;
9689;SDS011;4884;42.614;23.340;2022-11-20T09:23:12;9.17;;;6.27;;
9689;SDS011;4884;42.614;23.340;2022-11-20T09:25:37;10.57;;;7.23;;
9689;SDS011;4884;42.614;23.340;2022-11-20T09:28:02;8.87;;;5.83;;
9689;SDS011;4884;42.614;23.340;2022-11-20T09:30:28;14.20;;;6.00;;
9689;SDS011;4884;42.614;23.340;2022-11-20T09:32:53;6.77;;;4.00;;
9689;SDS011;4884;42.614;23.340;2022-11-20T09:35:19;8.77;;;4.53;;
9689;SDS011;4884;42.614;23.340;2022-11-20T09:37:44;6.53;;;4.37;;
9689;SDS011;4884;42.614;23.340;2022-11-20T09:40:20;5.57;;;4.27;;
9689;SDS011;4884;42.614;23.340;2022-11-20T09:42:53;16.13;;;10.47;;
9689;SDS011;4884;42.614;23.340;2022-11-20T09:45:24;18.10;;;12.13;;
9689;SDS011;4884;42.614;23.340;2022-11-20T09:48:04;12.53;;;11.10;;
9689;SDS011;4884;42.614;23.340;2022-11-20T09:50:36;10.13;;;7.70;;
9689;SDS011;4884;42.614;23.340;2022-11-20T09:55:47;9.43;;;5.10;;
9689;SDS011;4884;42.614;23.340;2022-11-20T09:58:24;6.70;;;4.97;;
9689;SDS011;4884;42.614;23.340;2022-11-20T10:00:54;8.33;;;4.70;;
9689;SDS011;4884;42.614;23.340;2022-11-20T10:03:26;11.77;;;9.10;;
9689;SDS011;4884;42.614;23.340;2022-11-20T10:06:01;8.27;;;6.63;;
9689;SDS011;4884;42.614;23.340;2022-11-20T10:08:34;8.40;;;6.80;;
9689;SDS011;4884;42.614;23.340;2022-11-20T10:11:08;8.27;;;4.23;;
9689;SDS011;4884;42.614;23.340;2022-11-20T10:13:47;7.27;;;4.70;;
9689;SDS011;4884;42.614;23.340;2022-11-20T10:22:13;3.60;;;3.27;;
9689;SDS011;4884;42.614;23.340;2022-11-20T10:30:00;4.93;;;4.43;;
9689;SDS011;4884;42.614;23.340;2022-11-20T10:32:33;8.30;;;5.27;;
9689;SDS011;4884;42.614;23.340;2022-11-20T10:37:30;5.10;;;4.27;;
9689;SDS011;4884;42.614;23.340;2022-11-20T10:40:01;21.80;;;11.73;;
9689;SDS011;4884;42.614;23.340;2022-11-20T10:42:49;12.00;;;8.93;;
9689;SDS011;4884;42.614;23.340;2022-11-20T10:47:54;5.33;;;3.63;;
9689;SDS011;4884;42.614;23.340;2022-11-20T10:50:23;13.30;;;6.73;;
9689;SDS011;4884;42.614;23.340;2022-11-20T11:01:11;9.50;;;5.13;;
9689;SDS011;4884;42.614;23.340;2022-11-20T11:03:39;6.10;;;5.10;;
9689;SDS011;4884;42.614;23.340;2022-11-20T11:06:20;3.80;;;3.50;;
9689;SDS011;4884;42.614;23.340;2022-11-20T11:08:49;7.70;;;4.37;;
9689;SDS011;4884;42.614;23.340;2022-11-20T11:13:40;7.93;;;4.67;;
9689;SDS011;4884;42.614;23.340;2022-11-20T11:16:06;8.83;;;7.00;;
9689;SDS011;4884;42.614;23.340;2022-11-20T11:18:44;13.60;;;7.13;;
9689;SDS011;4884;42.614;23.340;2022-11-20T11:21:10;24.27;;;18.40;;
9689;SDS011;4884;42.614;23.340;2022-11-20T11:23:39;9.60;;;6.20;;
9689;SDS011;4884;42.614;23.340;2022-11-20T11:26:06;5.87;;;4.10;;
9689;SDS011;4884;42.614;23.340;2022-11-20T11:28:52;8.60;;;5.70;;
9689;SDS011;4884;42.614;23.340;2022-11-20T11:31:22;6.30;;;5.10;;
9689;SDS011;4884;42.614;23.340;2022-11-20T11:33:51;15.13;;;10.77;;
9689;SDS011;4884;42.614;23.340;2022-11-20T11:36:21;5.53;;;4.50;;
9689;SDS011;4884;42.614;23.340;2022-11-20T11:38:50;4.63;;;3.07;;
9689;SDS011;4884;42.614;23.340;2022-11-20T11:41:20;6.13;;;3.97;;
9689;SDS011;4884;42.614;23.340;2022-11-20T11:43:52;4.97;;;3.40;;
9689;SDS011;4884;42.614;23.340;2022-11-20T11:46:37;2.67;;;2.30;;
9689;SDS011;4884;42.614;23.340;2022-11-20T11:51:32;3.97;;;1.53;;
9689;SDS011;4884;42.614;23.340;2022-11-20T11:53:59;2.57;;;1.87;;
9689;SDS011;4884;42.614;23.340;2022-11-20T11:56:26;2.93;;;1.77;;
9689;SDS011;4884;42.614;23.340;2022-11-20T11:58:53;5.73;;;2.83;;
9689;SDS011;4884;42.614;23.340;2022-11-20T12:01:32;3.30;;;2.30;;
9689;SDS011;4884;42.614;23.340;2022-11-20T12:04:11;4.27;;;1.23;;
9689;SDS011;4884;42.614;23.340;2022-11-20T12:07:28;6.70;;;4.50;;
9689;SDS011;4884;42.614;23.340;2022-11-20T12:09:54;5.07;;;3.23;;
9689;SDS011;4884;42.614;23.340;2022-11-20T12:12:31;2.53;;;2.33;;
9689;SDS011;4884;42.614;23.340;2022-11-20T12:15:01;2.17;;;1.30;;
9689;SDS011;4884;42.614;23.340;2022-11-20T12:17:27;5.87;;;4.30;;
9689;SDS011;4884;42.614;23.340;2022-11-20T12:19:53;2.07;;;1.80;;
9689;SDS011;4884;42.614;23.340;2022-11-20T12:25:03;3.23;;;1.50;;
9689;SDS011;4884;42.614;23.340;2022-11-20T12:30:18;1.90;;;1.63;;
9689;SDS011;4884;42.614;23.340;2022-11-20T12:50:40;5.33;;;2.80;;
9689;SDS011;4884;42.614;23.340;2022-11-20T12:56:34;4.50;;;1.23;;
9689;SDS011;4884;42.614;23.340;2022-11-20T13:01:49;5.53;;;1.77;;
9689;SDS011;4884;42.614;23.340;2022-11-20T13:07:08;4.13;;;3.13;;
9689;SDS011;4884;42.614;23.340;2022-11-20T13:09:42;2.63;;;1.57;;
9689;SDS011;4884;42.614;23.340;2022-11-20T13:12:19;3.67;;;1.40;;
9689;SDS011;4884;42.614;23.340;2022-11-20T13:14:55;1.30;;;1.20;;
9689;SDS011;4884;42.614;23.340;2022-11-20T13:17:30;1.50;;;1.40;;
9689;SDS011;4884;42.614;23.340;2022-11-20T13:20:00;3.60;;;1.80;;
9689;SDS011;4884;42.614;23.340;2022-11-20T13:22:26;6.57;;;5.03;;
9689;SDS011;4884;42.614;23.340;2022-11-20T13:25:29;7.37;;;6.33;;
9689;SDS011;4884;42.614;23.340;2022-11-20T13:27:57;8.10;;;4.90;;
9689;SDS011;4884;42.614;23.340;2022-11-20T13:30:27;11.73;;;6.47;;
9689;SDS011;4884;42.614;23.340;2022-11-20T13:32:54;50.70;;;28.93;;
9689;SDS011;4884;42.614;23.340;2022-11-20T13:35:28;27.37;;;16.00;;
9689;SDS011;4884;42.614;23.340;2022-11-20T13:40:37;9.50;;;5.63;;
9689;SDS011;4884;42.614;23.340;2022-11-20T13:45:36;8.13;;;5.43;;
9689;SDS011;4884;42.614;23.340;2022-11-20T13:48:15;6.57;;;4.97;;
9689;SDS011;4884;42.614;23.340;2022-11-20T13:50:55;15.07;;;10.47;;
9689;SDS011;4884;42.614;23.340;2022-11-20T13:53:53;8.73;;;6.27;;
9689;SDS011;4884;42.614;23.340;2022-11-20T14:01:44;122.43;;;84.30;;
9689;SDS011;4884;42.614;23.340;2022-11-20T14:04:13;133.87;;;91.73;;
9689;SDS011;4884;42.614;23.340;2022-11-20T14:06:44;152.47;;;105.97;;
9689;SDS011;4884;42.614;23.340;2022-11-20T14:09:12;73.33;;;52.53;;
9689;SDS011;4884;42.614;23.340;2022-11-20T14:11:49;21.47;;;16.73;;
9689;SDS011;4884;42.614;23.340;2022-11-20T14:14:18;27.47;;;20.13;;
9689;SDS011;4884;42.614;23.340;2022-11-20T14:16:45;32.63;;;24.80;;
9689;SDS011;4884;42.614;23.340;2022-11-20T14:21:52;61.47;;;44.87;;
9689;SDS011;4884;42.614;23.340;2022-11-20T14:24:23;120.50;;;74.67;;
9689;SDS011;4884;42.614;23.340;2022-11-20T14:26:49;28.90;;;23.27;;
9689;SDS011;4884;42.614;23.340;2022-11-20T14:29:19;45.97;;;33.77;;
9689;SDS011;4884;42.614;23.340;2022-11-20T14:31:47;68.80;;;44.70;;
9689;SDS011;4884;42.614;23.340;2022-11-20T14:34:17;245.60;;;179.50;;
9689;SDS011;4884;42.614;23.340;2022-11-20T14:36:47;145.40;;;100.97;;
9689;SDS011;4884;42.614;23.340;2022-11-20T14:39:22;127.17;;;91.10;;
9689;SDS011;4884;42.614;23.340;2022-11-20T14:41:51;97.03;;;67.40;;
9689;SDS011;4884;42.614;23.340;2022-11-20T14:44:17;62.23;;;45.87;;
9689;SDS011;4884;42.614;23.340;2022-11-20T14:46:45;147.30;;;98.77;;
9689;SDS011;4884;42.614;23.340;2022-11-20T14:49:10;55.40;;;49.50;;
9689;SDS011;4884;42.614;23.340;2022-11-20T14:51:37;61.87;;;51.63;;
9689;SDS011;4884;42.614;23.340;2022-11-20T14:54:17;40.73;;;29.90;;
9689;SDS011;4884;42.614;23.340;2022-11-20T14:56:56;16.80;;;12.03;;
9689;SDS011;4884;42.614;23.340;2022-11-20T14:59:23;18.30;;;14.73;;
9689;SDS011;4884;42.614;23.340;2022-11-20T15:02:03;13.40;;;10.80;;
9689;SDS011;4884;42.614;23.340;2022-11-20T15:04:30;22.70;;;15.57;;
9689;SDS011;4884;42.614;23.340;2022-11-20T15:06:57;13.90;;;6.93;;
9689;SDS011;4884;42.614;23.340;2022-11-20T15:09:24;8.67;;;5.57;;
9689;SDS011;4884;42.614;23.340;2022-11-20T15:11:59;5.20;;;4.03;;
9689;SDS011;4884;42.614;23.340;2022-11-20T15:14:27;7.47;;;3.60;;
9689;SDS011;4884;42.614;23.340;2022-11-20T15:16:53;4.47;;;4.00;;
9689;SDS011;4884;42.614;23.340;2022-11-20T15:19:25;9.17;;;5.10;;
9689;SDS011;4884;42.614;23.340;2022-11-20T15:21:51;5.57;;;4.80;;
9689;SDS011;4884;42.614;23.340;2022-11-20T15:24:17;8.13;;;5.27;;
9689;SDS011;4884;42.614;23.340;2022-11-20T15:26:42;6.63;;;5.83;;
9689;SDS011;4884;42.614;23.340;2022-11-20T15:29:12;6.77;;;5.87;;
9689;SDS011;4884;42.614;23.340;2022-11-20T15:31:38;7.53;;;6.00;;
9689;SDS011;4884;42.614;23.340;2022-11-20T15:34:13;7.00;;;5.70;;
9689;SDS011;4884;42.614;23.340;2022-11-20T15:36:39;5.13;;;4.07;;
9689;SDS011;4884;42.614;23.340;2022-11-20T15:39:05;5.17;;;4.40;;
9689;SDS011;4884;42.614;23.340;2022-11-20T15:41:32;5.23;;;4.73;;
9689;SDS011;4884;42.614;23.340;2022-11-20T15:43:58;6.07;;;5.47;;
9689;SDS011;4884;42.614;23.340;2022-11-20T15:46:26;6.50;;;4.97;;
9689;SDS011;4884;42.614;23.340;2022-11-20T15:48:54;6.90;;;5.37;;
9689;SDS011;4884;42.614;23.340;2022-11-20T15:53:50;8.40;;;6.80;;
9689;SDS011;4884;42.614;23.340;2022-11-20T15:56:16;6.13;;;4.70;;
9689;SDS011;4884;42.614;23.340;2022-11-20T15:58:41;15.90;;;14.13;;
9689;SDS011;4884;42.614;23.340;2022-11-20T16:01:11;10.07;;;7.73;;
9689;SDS011;4884;42.614;23.340;2022-11-20T16:03:37;9.30;;;8.40;;
9689;SDS011;4884;42.614;23.340;2022-11-20T16:06:02;9.27;;;7.03;;
9689;SDS011;4884;42.614;23.340;2022-11-20T16:08:28;14.97;;;10.03;;
9689;SDS011;4884;42.614;23.340;2022-11-20T16:10:53;10.00;;;7.93;;
9689;SDS011;4884;42.614;23.340;2022-11-20T16:13:18;10.17;;;7.43;;
9689;SDS011;4884;42.614;23.340;2022-11-20T16:16:04;8.43;;;4.97;;
9689;SDS011;4884;42.614;23.340;2022-11-20T16:18:31;16.10;;;9.63;;
9689;SDS011;4884;42.614;23.340;2022-11-20T16:20:56;17.63;;;11.33;;
9689;SDS011;4884;42.614;23.340;2022-11-20T16:23:22;11.50;;;7.97;;
9689;SDS011;4884;42.614;23.340;2022-11-20T16:25:48;9.07;;;5.33;;
9689;SDS011;4884;42.614;23.340;2022-11-20T16:28:13;8.90;;;5.40;;
9689;SDS011;4884;42.614;23.340;2022-11-20T16:30:39;13.03;;;10.30;;
9689;SDS011;4884;42.614;23.340;2022-11-20T16:33:08;12.87;;;11.33;;
9689;SDS011;4884;42.614;23.340;2022-11-20T16:35:35;12.77;;;7.10;;